sensor_id;sensor_type;location;lat;lon;timestamp;temperature;humidity
76291;DHT22;65100;46.884;17.410;2023-02-24T00:01:38;9.70;74.48
76291;DHT22;65100;46.884;17.410;2023-02-24T00:04:07;9.79;73.97
76291;DHT22;65100;46.884;17.410;2023-02-24T00:06:36;9.78;73.54
76291;DHT22;65100;46.884;17.410;2023-02-24T00:11:30;9.59;74.84
76291;DHT22;65100;46.884;17.410;2023-02-24T00:13:56;9.29;75.21
76291;DHT22;65100;46.884;17.410;2023-02-24T00:16:22;9.18;75.47
76291;DHT22;65100;46.884;17.410;2023-02-24T00:18:47;9.25;74.98
76291;DHT22;65100;46.884;17.410;2023-02-24T00:21:15;8.95;75.92
76291;DHT22;65100;46.884;17.410;2023-02-24T00:23:45;8.92;77.03
76291;DHT22;65100;46.884;17.410;2023-02-24T00:26:13;8.81;77.38
76291;DHT22;65100;46.884;17.410;2023-02-24T00:28:40;9.05;77.33
76291;DHT22;65100;46.884;17.410;2023-02-24T00:31:08;9.14;77.96
76291;DHT22;65100;46.884;17.410;2023-02-24T00:33:39;9.31;77.36
76291;DHT22;65100;46.884;17.410;2023-02-24T00:38:31;9.39;77.02
76291;DHT22;65100;46.884;17.410;2023-02-24T00:41:01;9.21;76.93
76291;DHT22;65100;46.884;17.410;2023-02-24T00:43:31;8.89;77.80
76291;DHT22;65100;46.884;17.410;2023-02-24T00:46:01;9.36;78.26
76291;DHT22;65100;46.884;17.410;2023-02-24T00:48:27;9.12;77.53
76291;DHT22;65100;46.884;17.410;2023-02-24T00:50:53;9.19;77.49
76291;DHT22;65100;46.884;17.410;2023-02-24T00:53:18;9.32;78.12
76291;DHT22;65100;46.884;17.410;2023-02-24T00:55:44;9.10;77.43
76291;DHT22;65100;46.884;17.410;2023-02-24T00:58:09;9.26;77.86
76291;DHT22;65100;46.884;17.410;2023-02-24T01:00:35;9.40;78.16
76291;DHT22;65100;46.884;17.410;2023-02-24T01:03:01;9.43;77.14
76291;DHT22;65100;46.884;17.410;2023-02-24T01:05:28;9.32;77.06
76291;DHT22;65100;46.884;17.410;2023-02-24T01:07:53;9.50;77.41
76291;DHT22;65100;46.884;17.410;2023-02-24T01:10:19;9.34;77.70
76291;DHT22;65100;46.884;17.410;2023-02-24T01:12:46;9.15;77.34
76291;DHT22;65100;46.884;17.410;2023-02-24T01:15:16;9.21;78.82
76291;DHT22;65100;46.884;17.410;2023-02-24T01:17:42;9.21;77.73
76291;DHT22;65100;46.884;17.410;2023-02-24T01:20:09;9.48;77.96
76291;DHT22;65100;46.884;17.410;2023-02-24T01:22:50;9.58;77.88
76291;DHT22;65100;46.884;17.410;2023-02-24T01:25:17;9.56;77.54
76291;DHT22;65100;46.884;17.410;2023-02-24T01:27:44;9.42;77.08
76291;DHT22;65100;46.884;17.410;2023-02-24T01:30:11;9.55;77.57
76291;DHT22;65100;46.884;17.410;2023-02-24T01:32:41;9.53;77.42
76291;DHT22;65100;46.884;17.410;2023-02-24T01:35:06;9.40;77.36
76291;DHT22;65100;46.884;17.410;2023-02-24T01:37:32;9.26;78.31
76291;DHT22;65100;46.884;17.410;2023-02-24T01:39:58;9.24;77.22
76291;DHT22;65100;46.884;17.410;2023-02-24T01:42:23;9.39;77.25
76291;DHT22;65100;46.884;17.410;2023-02-24T01:47:17;9.52;77.32
76291;DHT22;65100;46.884;17.410;2023-02-24T01:49:49;9.21;77.48
76291;DHT22;65100;46.884;17.410;2023-02-24T01:52:25;9.12;78.09
76291;DHT22;65100;46.884;17.410;2023-02-24T01:55:27;9.31;76.91
76291;DHT22;65100;46.884;17.410;2023-02-24T01:57:47;9.24;76.59
76291;DHT22;65100;46.884;17.410;2023-02-24T02:00:14;9.35;76.99
76291;DHT22;65100;46.884;17.410;2023-02-24T02:02:59;9.42;77.50
76291;DHT22;65100;46.884;17.410;2023-02-24T02:05:26;9.56;76.35
76291;DHT22;65100;46.884;17.410;2023-02-24T02:07:52;9.59;74.91
76291;DHT22;65100;46.884;17.410;2023-02-24T02:10:18;9.48;75.53
76291;DHT22;65100;46.884;17.410;2023-02-24T02:12:44;9.31;75.31
76291;DHT22;65100;46.884;17.410;2023-02-24T02:15:12;9.15;76.72
76291;DHT22;65100;46.884;17.410;2023-02-24T02:34:08;8.68;77.78
76291;DHT22;65100;46.884;17.410;2023-02-24T02:47:27;8.61;77.02
76291;DHT22;65100;46.884;17.410;2023-02-24T02:50:18;8.46;77.16
76291;DHT22;65100;46.884;17.410;2023-02-24T02:55:51;8.29;78.14
76291;DHT22;65100;46.884;17.410;2023-02-24T02:58:21;8.06;78.92
76291;DHT22;65100;46.884;17.410;2023-02-24T03:00:52;7.76;79.27
76291;DHT22;65100;46.884;17.410;2023-02-24T03:03:31;8.02;79.14
76291;DHT22;65100;46.884;17.410;2023-02-24T03:08:29;8.19;78.62
76291;DHT22;65100;46.884;17.410;2023-02-24T03:11:00;8.32;78.92
76291;DHT22;65100;46.884;17.410;2023-02-24T03:13:30;8.56;78.18
76291;DHT22;65100;46.884;17.410;2023-02-24T03:15:59;8.57;77.74
76291;DHT22;65100;46.884;17.410;2023-02-24T03:18:32;8.50;78.40
76291;DHT22;65100;46.884;17.410;2023-02-24T03:21:05;8.41;77.86
76291;DHT22;65100;46.884;17.410;2023-02-24T03:23:34;8.44;78.53
76291;DHT22;65100;46.884;17.410;2023-02-24T03:26:04;8.33;77.74
76291;DHT22;65100;46.884;17.410;2023-02-24T03:28:36;8.43;78.15
76291;DHT22;65100;46.884;17.410;2023-02-24T03:31:12;8.40;78.21
76291;DHT22;65100;46.884;17.410;2023-02-24T03:33:54;8.25;78.82
76291;DHT22;65100;46.884;17.410;2023-02-24T03:36:25;8.34;78.01
76291;DHT22;65100;46.884;17.410;2023-02-24T03:38:51;8.50;78.21
76291;DHT22;65100;46.884;17.410;2023-02-24T03:41:17;8.50;78.26
76291;DHT22;65100;46.884;17.410;2023-02-24T03:43:45;8.44;78.19
76291;DHT22;65100;46.884;17.410;2023-02-24T03:46:14;8.46;79.18
76291;DHT22;65100;46.884;17.410;2023-02-24T03:48:48;8.54;78.44
76291;DHT22;65100;46.884;17.410;2023-02-24T03:51:17;8.53;78.77
76291;DHT22;65100;46.884;17.410;2023-02-24T03:54:00;8.63;78.66
76291;DHT22;65100;46.884;17.410;2023-02-24T03:56:44;8.68;78.54
76291;DHT22;65100;46.884;17.410;2023-02-24T04:01:55;8.43;77.76
76291;DHT22;65100;46.884;17.410;2023-02-24T04:04:42;8.50;79.59
76291;DHT22;65100;46.884;17.410;2023-02-24T04:12:54;8.37;80.02
76291;DHT22;65100;46.884;17.410;2023-02-24T04:15:31;8.32;80.03
76291;DHT22;65100;46.884;17.410;2023-02-24T04:18:12;8.48;79.79
76291;DHT22;65100;46.884;17.410;2023-02-24T04:20:40;8.74;78.79
76291;DHT22;65100;46.884;17.410;2023-02-24T04:23:14;8.74;79.07
76291;DHT22;65100;46.884;17.410;2023-02-24T04:25:44;8.47;81.56
76291;DHT22;65100;46.884;17.410;2023-02-24T04:28:11;8.46;81.17
76291;DHT22;65100;46.884;17.410;2023-02-24T04:30:41;8.54;81.05
76291;DHT22;65100;46.884;17.410;2023-02-24T04:33:08;8.81;81.32
76291;DHT22;65100;46.884;17.410;2023-02-24T04:35:34;8.92;81.51
76291;DHT22;65100;46.884;17.410;2023-02-24T04:38:03;9.14;79.17
76291;DHT22;65100;46.884;17.410;2023-02-24T04:40:29;9.10;79.37
76291;DHT22;65100;46.884;17.410;2023-02-24T04:42:55;9.16;78.96
76291;DHT22;65100;46.884;17.410;2023-02-24T04:45:22;9.29;78.86
76291;DHT22;65100;46.884;17.410;2023-02-24T04:47:50;9.38;78.52
76291;DHT22;65100;46.884;17.410;2023-02-24T04:50:18;9.22;80.16
76291;DHT22;65100;46.884;17.410;2023-02-24T04:52:58;8.92;78.91
76291;DHT22;65100;46.884;17.410;2023-02-24T04:55:27;9.19;79.29
76291;DHT22;65100;46.884;17.410;2023-02-24T04:58:02;9.52;78.21
76291;DHT22;65100;46.884;17.410;2023-02-24T05:00:28;9.53;77.82
76291;DHT22;65100;46.884;17.410;2023-02-24T05:03:02;9.46;77.41
76291;DHT22;65100;46.884;17.410;2023-02-24T05:05:28;9.45;77.70
76291;DHT22;65100;46.884;17.410;2023-02-24T05:08:00;9.39;77.34
76291;DHT22;65100;46.884;17.410;2023-02-24T05:10:41;9.10;77.78
76291;DHT22;65100;46.884;17.410;2023-02-24T05:13:14;8.85;79.76
76291;DHT22;65100;46.884;17.410;2023-02-24T05:15:41;9.00;79.30
76291;DHT22;65100;46.884;17.410;2023-02-24T05:18:08;9.00;78.05
76291;DHT22;65100;46.884;17.410;2023-02-24T05:20:40;8.67;78.76
76291;DHT22;65100;46.884;17.410;2023-02-24T05:23:29;8.94;79.42
76291;DHT22;65100;46.884;17.410;2023-02-24T05:26:02;9.10;78.45
76291;DHT22;65100;46.884;17.410;2023-02-24T05:28:33;9.15;78.35
76291;DHT22;65100;46.884;17.410;2023-02-24T05:31:13;8.89;78.06
76291;DHT22;65100;46.884;17.410;2023-02-24T05:33:44;8.74;78.83
76291;DHT22;65100;46.884;17.410;2023-02-24T05:36:12;8.23;80.14
76291;DHT22;65100;46.884;17.410;2023-02-24T05:38:54;8.12;80.92
76291;DHT22;65100;46.884;17.410;2023-02-24T05:41:24;8.00;81.99
76291;DHT22;65100;46.884;17.410;2023-02-24T05:44:01;8.38;80.95
76291;DHT22;65100;46.884;17.410;2023-02-24T05:46:31;8.26;81.51
76291;DHT22;65100;46.884;17.410;2023-02-24T05:49:14;8.30;80.87
76291;DHT22;65100;46.884;17.410;2023-02-24T05:51:40;8.56;79.99
76291;DHT22;65100;46.884;17.410;2023-02-24T05:54:18;8.37;80.69
76291;DHT22;65100;46.884;17.410;2023-02-24T05:56:44;8.75;79.24
76291;DHT22;65100;46.884;17.410;2023-02-24T05:59:12;8.70;79.78
76291;DHT22;65100;46.884;17.410;2023-02-24T06:01:42;8.68;80.15
76291;DHT22;65100;46.884;17.410;2023-02-24T06:04:11;8.92;78.49
76291;DHT22;65100;46.884;17.410;2023-02-24T06:06:46;8.68;78.96
76291;DHT22;65100;46.884;17.410;2023-02-24T06:09:17;8.46;80.52
76291;DHT22;65100;46.884;17.410;2023-02-24T06:11:43;8.60;80.09
76291;DHT22;65100;46.884;17.410;2023-02-24T06:14:11;8.87;78.59
76291;DHT22;65100;46.884;17.410;2023-02-24T06:16:38;8.77;78.64
76291;DHT22;65100;46.884;17.410;2023-02-24T06:19:05;8.78;79.18
76291;DHT22;65100;46.884;17.410;2023-02-24T06:21:33;8.82;79.77
76291;DHT22;65100;46.884;17.410;2023-02-24T06:24:00;8.74;80.19
76291;DHT22;65100;46.884;17.410;2023-02-24T06:26:26;8.72;80.29
76291;DHT22;65100;46.884;17.410;2023-02-24T06:28:58;8.87;81.91
76291;DHT22;65100;46.884;17.410;2023-02-24T06:31:24;8.74;80.42
76291;DHT22;65100;46.884;17.410;2023-02-24T06:33:51;8.63;81.39
76291;DHT22;65100;46.884;17.410;2023-02-24T06:36:18;8.84;80.51
76291;DHT22;65100;46.884;17.410;2023-02-24T06:38:43;8.64;81.17
76291;DHT22;65100;46.884;17.410;2023-02-24T06:41:09;9.02;80.60
76291;DHT22;65100;46.884;17.410;2023-02-24T06:43:39;9.18;79.42
76291;DHT22;65100;46.884;17.410;2023-02-24T06:46:06;9.25;79.00
76291;DHT22;65100;46.884;17.410;2023-02-24T06:48:32;9.16;79.15
76291;DHT22;65100;46.884;17.410;2023-02-24T06:51:11;9.43;78.28
76291;DHT22;65100;46.884;17.410;2023-02-24T06:53:41;9.50;77.82
76291;DHT22;65100;46.884;17.410;2023-02-24T06:56:12;9.48;78.27
76291;DHT22;65100;46.884;17.410;2023-02-24T06:58:53;9.29;79.40
76291;DHT22;65100;46.884;17.410;2023-02-24T07:01:25;9.39;78.86
76291;DHT22;65100;46.884;17.410;2023-02-24T07:03:55;9.50;78.28
76291;DHT22;65100;46.884;17.410;2023-02-24T07:06:30;9.48;78.24
76291;DHT22;65100;46.884;17.410;2023-02-24T07:08:57;9.52;77.99
76291;DHT22;65100;46.884;17.410;2023-02-24T07:11:23;9.42;78.37
76291;DHT22;65100;46.884;17.410;2023-02-24T07:13:49;9.48;78.29
76291;DHT22;65100;46.884;17.410;2023-02-24T07:16:20;9.65;78.03
76291;DHT22;65100;46.884;17.410;2023-02-24T07:18:52;9.65;77.78
76291;DHT22;65100;46.884;17.410;2023-02-24T07:21:18;9.76;77.48
76291;DHT22;65100;46.884;17.410;2023-02-24T07:23:48;9.79;77.41
76291;DHT22;65100;46.884;17.410;2023-02-24T07:26:18;9.85;77.67
76291;DHT22;65100;46.884;17.410;2023-02-24T07:28:45;9.66;78.15
76291;DHT22;65100;46.884;17.410;2023-02-24T07:31:14;9.43;79.30
76291;DHT22;65100;46.884;17.410;2023-02-24T07:33:42;9.60;78.95
76291;DHT22;65100;46.884;17.410;2023-02-24T07:36:15;9.72;78.42
76291;DHT22;65100;46.884;17.410;2023-02-24T07:38:43;9.80;77.23
76291;DHT22;65100;46.884;17.410;2023-02-24T07:41:11;9.89;77.42
76291;DHT22;65100;46.884;17.410;2023-02-24T07:43:38;9.99;77.51
76291;DHT22;65100;46.884;17.410;2023-02-24T07:46:09;10.06;76.78
76291;DHT22;65100;46.884;17.410;2023-02-24T07:48:36;10.21;76.91
76291;DHT22;65100;46.884;17.410;2023-02-24T07:51:10;10.27;76.45
76291;DHT22;65100;46.884;17.410;2023-02-24T07:53:36;10.32;76.49
76291;DHT22;65100;46.884;17.410;2023-02-24T07:58:41;10.56;74.83
76291;DHT22;65100;46.884;17.410;2023-02-24T08:01:11;10.47;75.38
76291;DHT22;65100;46.884;17.410;2023-02-24T08:03:51;10.60;74.30
76291;DHT22;65100;46.884;17.410;2023-02-24T08:06:20;10.74;75.59
76291;DHT22;65100;46.884;17.410;2023-02-24T08:08:53;10.88;75.34
76291;DHT22;65100;46.884;17.410;2023-02-24T08:11:31;10.81;74.00
76291;DHT22;65100;46.884;17.410;2023-02-24T08:14:05;10.91;74.51
76291;DHT22;65100;46.884;17.410;2023-02-24T08:16:48;11.07;74.10
76291;DHT22;65100;46.884;17.410;2023-02-24T08:19:17;11.02;72.30
76291;DHT22;65100;46.884;17.410;2023-02-24T08:21:48;11.21;73.24
76291;DHT22;65100;46.884;17.410;2023-02-24T08:24:24;11.04;72.63
76291;DHT22;65100;46.884;17.410;2023-02-24T08:26:55;11.11;72.59
76291;DHT22;65100;46.884;17.410;2023-02-24T08:29:31;11.26;70.10
76291;DHT22;65100;46.884;17.410;2023-02-24T08:32:04;10.88;71.60
76291;DHT22;65100;46.884;17.410;2023-02-24T08:34:30;10.98;71.21
76291;DHT22;65100;46.884;17.410;2023-02-24T08:36:56;11.02;70.59
76291;DHT22;65100;46.884;17.410;2023-02-24T08:39:22;11.11;70.62
76291;DHT22;65100;46.884;17.410;2023-02-24T08:41:48;11.07;71.71
76291;DHT22;65100;46.884;17.410;2023-02-24T08:44:19;11.10;70.78
76291;DHT22;65100;46.884;17.410;2023-02-24T08:46:48;11.11;70.12
76291;DHT22;65100;46.884;17.410;2023-02-24T08:49:17;10.95;70.77
76291;DHT22;65100;46.884;17.410;2023-02-24T08:51:45;11.14;70.89
76291;DHT22;65100;46.884;17.410;2023-02-24T08:54:20;11.52;69.64
76291;DHT22;65100;46.884;17.410;2023-02-24T08:56:52;11.66;67.95
76291;DHT22;65100;46.884;17.410;2023-02-24T08:59:22;11.59;68.29
76291;DHT22;65100;46.884;17.410;2023-02-24T09:02:20;11.79;69.93
76291;DHT22;65100;46.884;17.410;2023-02-24T09:04:59;12.24;69.19
76291;DHT22;65100;46.884;17.410;2023-02-24T09:07:27;12.37;66.96
76291;DHT22;65100;46.884;17.410;2023-02-24T09:09:53;12.65;66.09
76291;DHT22;65100;46.884;17.410;2023-02-24T09:12:25;12.63;66.34
76291;DHT22;65100;46.884;17.410;2023-02-24T09:14:57;12.38;65.74
76291;DHT22;65100;46.884;17.410;2023-02-24T09:17:27;12.27;66.10
76291;DHT22;65100;46.884;17.410;2023-02-24T09:20:21;12.48;65.37
76291;DHT22;65100;46.884;17.410;2023-02-24T09:22:50;12.51;61.61
76291;DHT22;65100;46.884;17.410;2023-02-24T09:25:23;12.91;64.54
76291;DHT22;65100;46.884;17.410;2023-02-24T09:28:09;13.14;61.98
76291;DHT22;65100;46.884;17.410;2023-02-24T09:30:42;13.02;62.27
76291;DHT22;65100;46.884;17.410;2023-02-24T09:33:34;13.15;62.62
76291;DHT22;65100;46.884;17.410;2023-02-24T09:36:06;13.25;63.23
76291;DHT22;65100;46.884;17.410;2023-02-24T09:38:39;13.51;61.71
76291;DHT22;65100;46.884;17.410;2023-02-24T09:41:47;13.46;59.96
76291;DHT22;65100;46.884;17.410;2023-02-24T09:44:44;13.28;62.98
76291;DHT22;65100;46.884;17.410;2023-02-24T09:47:27;13.02;65.05
76291;DHT22;65100;46.884;17.410;2023-02-24T09:52:46;12.81;63.59
76291;DHT22;65100;46.884;17.410;2023-02-24T09:55:33;12.91;63.05
76291;DHT22;65100;46.884;17.410;2023-02-24T09:58:13;13.14;62.75
76291;DHT22;65100;46.884;17.410;2023-02-24T10:03:58;13.15;63.33
76291;DHT22;65100;46.884;17.410;2023-02-24T10:06:42;13.02;62.47
76291;DHT22;65100;46.884;17.410;2023-02-24T10:11:47;12.92;63.33
76291;DHT22;65100;46.884;17.410;2023-02-24T10:17:21;13.49;59.95
76291;DHT22;65100;46.884;17.410;2023-02-24T10:19:48;13.59;60.92
76291;DHT22;65100;46.884;17.410;2023-02-24T10:27:48;14.27;57.25
76291;DHT22;65100;46.884;17.410;2023-02-24T10:30:55;14.26;57.87
76291;DHT22;65100;46.884;17.410;2023-02-24T10:36:22;14.44;56.08
76291;DHT22;65100;46.884;17.410;2023-02-24T10:39:22;14.77;58.24
76291;DHT22;65100;46.884;17.410;2023-02-24T10:41:59;14.92;55.49
76291;DHT22;65100;46.884;17.410;2023-02-24T10:44:40;14.80;56.87
76291;DHT22;65100;46.884;17.410;2023-02-24T10:47:23;14.80;56.10
76291;DHT22;65100;46.884;17.410;2023-02-24T10:50:01;15.17;53.29
76291;DHT22;65100;46.884;17.410;2023-02-24T10:52:33;15.31;53.04
76291;DHT22;65100;46.884;17.410;2023-02-24T10:58:30;15.49;53.76
76291;DHT22;65100;46.884;17.410;2023-02-24T11:01:27;15.65;52.11
76291;DHT22;65100;46.884;17.410;2023-02-24T11:04:14;15.76;50.63
76291;DHT22;65100;46.884;17.410;2023-02-24T11:07:13;15.83;50.08
76291;DHT22;65100;46.884;17.410;2023-02-24T11:10:37;15.85;50.72
76291;DHT22;65100;46.884;17.410;2023-02-24T11:12:46;15.90;49.76
76291;DHT22;65100;46.884;17.410;2023-02-24T11:15:34;15.95;49.18
76291;DHT22;65100;46.884;17.410;2023-02-24T11:18:24;15.99;48.80
76291;DHT22;65100;46.884;17.410;2023-02-24T11:23:27;16.19;51.08
76291;DHT22;65100;46.884;17.410;2023-02-24T11:25:58;16.14;52.43
76291;DHT22;65100;46.884;17.410;2023-02-24T11:28:45;15.79;49.68
76291;DHT22;65100;46.884;17.410;2023-02-24T11:34:21;15.78;47.74
76291;DHT22;65100;46.884;17.410;2023-02-24T11:37:03;15.66;49.21
76291;DHT22;65100;46.884;17.410;2023-02-24T11:39:51;15.86;49.02
76291;DHT22;65100;46.884;17.410;2023-02-24T11:42:25;16.13;48.63
76291;DHT22;65100;46.884;17.410;2023-02-24T11:45:10;16.19;49.63
76291;DHT22;65100;46.884;17.410;2023-02-24T11:47:43;15.93;50.16
76291;DHT22;65100;46.884;17.410;2023-02-24T11:53:03;16.26;49.28
76291;DHT22;65100;46.884;17.410;2023-02-24T11:55:38;16.23;48.79
76291;DHT22;65100;46.884;17.410;2023-02-24T12:00:51;16.09;51.15
76291;DHT22;65100;46.884;17.410;2023-02-24T12:03:26;15.96;49.54
76291;DHT22;65100;46.884;17.410;2023-02-24T12:05:56;16.16;49.76
76291;DHT22;65100;46.884;17.410;2023-02-24T12:08:31;16.23;48.98
76291;DHT22;65100;46.884;17.410;2023-02-24T12:11:24;16.31;48.67
76291;DHT22;65100;46.884;17.410;2023-02-24T12:13:58;16.47;48.78
76291;DHT22;65100;46.884;17.410;2023-02-24T12:16:34;16.46;47.70
76291;DHT22;65100;46.884;17.410;2023-02-24T12:19:12;16.47;49.42
76291;DHT22;65100;46.884;17.410;2023-02-24T12:21:42;16.47;47.98
76291;DHT22;65100;46.884;17.410;2023-02-24T12:24:13;16.65;50.05
76291;DHT22;65100;46.884;17.410;2023-02-24T12:32:07;16.57;45.99
76291;DHT22;65100;46.884;17.410;2023-02-24T12:38:01;16.40;49.66
76291;DHT22;65100;46.884;17.410;2023-02-24T12:43:26;16.88;46.72
76291;DHT22;65100;46.884;17.410;2023-02-24T12:46:06;16.89;47.16
76291;DHT22;65100;46.884;17.410;2023-02-24T12:48:55;16.85;46.00
76291;DHT22;65100;46.884;17.410;2023-02-24T12:51:30;16.57;45.41
76291;DHT22;65100;46.884;17.410;2023-02-24T12:54:13;16.61;48.09
76291;DHT22;65100;46.884;17.410;2023-02-24T12:59:07;16.74;46.17
76291;DHT22;65100;46.884;17.410;2023-02-24T13:10:45;16.78;48.28
76291;DHT22;65100;46.884;17.410;2023-02-24T13:13:36;16.53;48.01
76291;DHT22;65100;46.884;17.410;2023-02-24T13:16:04;16.47;47.27
76291;DHT22;65100;46.884;17.410;2023-02-24T13:18:32;16.36;45.62
76291;DHT22;65100;46.884;17.410;2023-02-24T13:21:08;16.44;47.31
76291;DHT22;65100;46.884;17.410;2023-02-24T13:23:58;16.51;48.35
76291;DHT22;65100;46.884;17.410;2023-02-24T13:26:27;16.49;47.13
76291;DHT22;65100;46.884;17.410;2023-02-24T13:29:15;16.39;47.39
76291;DHT22;65100;46.884;17.410;2023-02-24T13:31:47;16.44;48.02
76291;DHT22;65100;46.884;17.410;2023-02-24T13:34:46;16.63;49.84
76291;DHT22;65100;46.884;17.410;2023-02-24T13:37:12;16.59;49.40
76291;DHT22;65100;46.884;17.410;2023-02-24T13:39:39;16.71;48.31
76291;DHT22;65100;46.884;17.410;2023-02-24T13:42:28;16.68;46.30
76291;DHT22;65100;46.884;17.410;2023-02-24T13:50:17;16.59;47.21
76291;DHT22;65100;46.884;17.410;2023-02-24T13:58:36;16.64;47.27
76291;DHT22;65100;46.884;17.410;2023-02-24T14:01:09;16.41;45.33
76291;DHT22;65100;46.884;17.410;2023-02-24T14:03:37;16.59;48.01
76291;DHT22;65100;46.884;17.410;2023-02-24T14:06:05;16.64;44.30
76291;DHT22;65100;46.884;17.410;2023-02-24T14:08:34;16.57;43.24
76291;DHT22;65100;46.884;17.410;2023-02-24T14:11:02;16.53;45.57
76291;DHT22;65100;46.884;17.410;2023-02-24T14:13:30;16.60;44.91
76291;DHT22;65100;46.884;17.410;2023-02-24T14:16:00;16.61;42.86
76291;DHT22;65100;46.884;17.410;2023-02-24T14:18:29;16.63;44.32
76291;DHT22;65100;46.884;17.410;2023-02-24T14:20:56;16.51;44.11
76291;DHT22;65100;46.884;17.410;2023-02-24T14:26:04;16.37;44.45
76291;DHT22;65100;46.884;17.410;2023-02-24T14:28:33;16.31;45.10
76291;DHT22;65100;46.884;17.410;2023-02-24T14:31:04;16.36;45.33
76291;DHT22;65100;46.884;17.410;2023-02-24T14:33:35;16.40;43.58
76291;DHT22;65100;46.884;17.410;2023-02-24T14:36:02;16.31;44.26
76291;DHT22;65100;46.884;17.410;2023-02-24T14:38:34;16.39;47.06
76291;DHT22;65100;46.884;17.410;2023-02-24T14:41:06;16.36;46.15
76291;DHT22;65100;46.884;17.410;2023-02-24T14:43:39;16.41;46.76
76291;DHT22;65100;46.884;17.410;2023-02-24T14:46:05;16.30;46.14
76291;DHT22;65100;46.884;17.410;2023-02-24T14:48:30;16.44;45.06
76291;DHT22;65100;46.884;17.410;2023-02-24T14:51:22;16.37;44.72
76291;DHT22;65100;46.884;17.410;2023-02-24T14:53:51;16.19;43.47
76291;DHT22;65100;46.884;17.410;2023-02-24T14:56:18;16.24;44.44
76291;DHT22;65100;46.884;17.410;2023-02-24T14:59:41;16.19;46.72
76291;DHT22;65100;46.884;17.410;2023-02-24T15:02:03;16.06;44.90
76291;DHT22;65100;46.884;17.410;2023-02-24T15:04:36;16.06;45.78
76291;DHT22;65100;46.884;17.410;2023-02-24T15:07:05;15.95;43.87
76291;DHT22;65100;46.884;17.410;2023-02-24T15:09:35;15.90;46.16
76291;DHT22;65100;46.884;17.410;2023-02-24T15:12:18;15.72;45.01
76291;DHT22;65100;46.884;17.410;2023-02-24T15:15:06;15.61;46.12
76291;DHT22;65100;46.884;17.410;2023-02-24T15:17:38;15.56;45.39
76291;DHT22;65100;46.884;17.410;2023-02-24T15:22:56;15.48;45.97
76291;DHT22;65100;46.884;17.410;2023-02-24T15:25:44;15.46;47.48
76291;DHT22;65100;46.884;17.410;2023-02-24T15:28:30;15.49;49.90
76291;DHT22;65100;46.884;17.410;2023-02-24T15:31:19;15.56;47.82
76291;DHT22;65100;46.884;17.410;2023-02-24T15:33:54;15.35;46.54
76291;DHT22;65100;46.884;17.410;2023-02-24T15:36:25;15.31;46.88
76291;DHT22;65100;46.884;17.410;2023-02-24T15:38:54;15.24;47.68
76291;DHT22;65100;46.884;17.410;2023-02-24T15:41:20;15.25;48.85
76291;DHT22;65100;46.884;17.410;2023-02-24T15:43:49;15.18;49.54
76291;DHT22;65100;46.884;17.410;2023-02-24T15:48:50;14.91;49.25
76291;DHT22;65100;46.884;17.410;2023-02-24T15:53:53;14.97;49.38
76291;DHT22;65100;46.884;17.410;2023-02-24T15:56:18;14.87;49.17
76291;DHT22;65100;46.884;17.410;2023-02-24T15:58:44;14.78;50.32
76291;DHT22;65100;46.884;17.410;2023-02-24T16:01:11;14.71;50.18
76291;DHT22;65100;46.884;17.410;2023-02-24T16:03:36;14.54;49.76
76291;DHT22;65100;46.884;17.410;2023-02-24T16:06:02;14.63;49.45
76291;DHT22;65100;46.884;17.410;2023-02-24T16:08:29;14.43;49.81
76291;DHT22;65100;46.884;17.410;2023-02-24T16:10:55;14.36;50.30
76291;DHT22;65100;46.884;17.410;2023-02-24T16:13:23;14.30;50.36
76291;DHT22;65100;46.884;17.410;2023-02-24T16:15:50;14.30;51.86
76291;DHT22;65100;46.884;17.410;2023-02-24T16:18:21;14.31;50.05
76291;DHT22;65100;46.884;17.410;2023-02-24T16:20:48;14.12;50.64
76291;DHT22;65100;46.884;17.410;2023-02-24T16:23:19;14.08;51.52
76291;DHT22;65100;46.884;17.410;2023-02-24T16:25:47;14.02;50.90
76291;DHT22;65100;46.884;17.410;2023-02-24T16:28:19;14.03;51.54
76291;DHT22;65100;46.884;17.410;2023-02-24T16:30:47;14.03;53.21
76291;DHT22;65100;46.884;17.410;2023-02-24T16:33:14;13.98;52.07
76291;DHT22;65100;46.884;17.410;2023-02-24T16:35:41;13.85;52.92
76291;DHT22;65100;46.884;17.410;2023-02-24T16:38:11;13.99;52.16
76291;DHT22;65100;46.884;17.410;2023-02-24T16:40:40;13.99;52.45
76291;DHT22;65100;46.884;17.410;2023-02-24T16:43:06;13.90;53.58
76291;DHT22;65100;46.884;17.410;2023-02-24T16:45:31;13.83;52.73
76291;DHT22;65100;46.884;17.410;2023-02-24T16:48:00;13.75;53.07
76291;DHT22;65100;46.884;17.410;2023-02-24T16:50:37;13.75;54.29
76291;DHT22;65100;46.884;17.410;2023-02-24T16:53:05;13.42;54.21
76291;DHT22;65100;46.884;17.410;2023-02-24T16:55:30;13.39;57.06
76291;DHT22;65100;46.884;17.410;2023-02-24T16:57:56;13.29;57.49
76291;DHT22;65100;46.884;17.410;2023-02-24T17:00:22;13.18;56.26
76291;DHT22;65100;46.884;17.410;2023-02-24T17:02:48;13.28;56.90
76291;DHT22;65100;46.884;17.410;2023-02-24T17:05:17;13.25;57.74
76291;DHT22;65100;46.884;17.410;2023-02-24T17:07:54;13.15;58.92
76291;DHT22;65100;46.884;17.410;2023-02-24T17:10:22;13.01;57.98
76291;DHT22;65100;46.884;17.410;2023-02-24T17:12:48;13.10;58.04
76291;DHT22;65100;46.884;17.410;2023-02-24T17:15:24;13.04;59.90
76291;DHT22;65100;46.884;17.410;2023-02-24T17:17:50;12.91;58.40
76291;DHT22;65100;46.884;17.410;2023-02-24T17:20:18;13.02;58.99
76291;DHT22;65100;46.884;17.410;2023-02-24T17:22:44;12.85;58.81
76291;DHT22;65100;46.884;17.410;2023-02-24T17:25:14;12.97;58.86
76291;DHT22;65100;46.884;17.410;2023-02-24T17:27:40;12.74;59.12
76291;DHT22;65100;46.884;17.410;2023-02-24T17:30:06;12.80;59.98
76291;DHT22;65100;46.884;17.410;2023-02-24T17:32:32;12.74;60.34
76291;DHT22;65100;46.884;17.410;2023-02-24T17:34:57;12.90;60.62
76291;DHT22;65100;46.884;17.410;2023-02-24T17:37:23;12.98;59.51
76291;DHT22;65100;46.884;17.410;2023-02-24T17:39:49;12.97;59.44
76291;DHT22;65100;46.884;17.410;2023-02-24T17:42:14;12.54;60.24
76291;DHT22;65100;46.884;17.410;2023-02-24T17:44:40;12.48;60.85
76291;DHT22;65100;46.884;17.410;2023-02-24T17:47:07;12.64;60.27
76291;DHT22;65100;46.884;17.410;2023-02-24T17:49:33;12.68;60.72
76291;DHT22;65100;46.884;17.410;2023-02-24T17:51:58;12.65;60.71
76291;DHT22;65100;46.884;17.410;2023-02-24T17:54:24;12.67;62.08
76291;DHT22;65100;46.884;17.410;2023-02-24T17:56:49;12.58;60.40
76291;DHT22;65100;46.884;17.410;2023-02-24T17:59:15;12.58;60.52
76291;DHT22;65100;46.884;17.410;2023-02-24T18:01:40;12.50;62.35
76291;DHT22;65100;46.884;17.410;2023-02-24T18:04:06;12.50;61.21